Lillian R. Settoon — WDD7490 — position and weather

sailwx.info

Track history (hours):
 
Tides and Currents Weather Stations Pressure Air Temp Water Temp Dewpoint Dewpoint Depression Visibility Wind Speed Wind Dir Waves Ship Positions

Lillian R. Settoon

Owner: Settoon Towing, L.L.C., Pierre Part, LA. More information available from US FCC via Universal Licensing System and Coast Guard Vessel Documentation Center.

Last reported at 2017-Oct-21 18:15 UTC. Time now 2017-Oct-22 06:12 UTC.
Position N 29°45' W 092°20'.

Length 23 m.

MMSI: 367168470.

Date/timePositionNaut miles runAvg speedWind from/ knotsBaromVisibWave heightAir tempDewpointWater temp
2017-Oct-21 18:15N 29°45' W 092°20'1 5.8
2017-Oct-21 18:00N 29°45' W 092°19'3 5.4
2017-Oct-21 17:30N 29°46' W 092°16'2 4.2
2017-Oct-21 17:00N 29°48' W 092°15'2 3.9
2017-Oct-21 16:30N 29°48' W 092°13'1 1.9
2017-Oct-21 16:00N 29°47' W 092°12'1 1.4
2017-Oct-21 15:30N 29°47' W 092°12'0 0.0
2017-Oct-21 15:00N 29°47' W 092°12'0 0.3
2017-Oct-21 14:00N 29°47' W 092°11'1 2.7
2017-Oct-21 13:30N 29°47' W 092°10'0 0.0
2017-Oct-21 13:00N 29°47' W 092°10'0 0.0
2017-Oct-21 12:30N 29°47' W 092°10'0 0.0
2017-Oct-21 12:00N 29°47' W 092°10'0 0.0
2017-Oct-21 11:30N 29°47' W 092°10'0 0.0
2017-Oct-21 11:00N 29°47' W 092°10'0 0.0
2017-Oct-21 10:30N 29°47' W 092°10'0 0.0
2017-Oct-21 10:00N 29°47' W 092°10'0 0.0
2017-Oct-21 09:30N 29°47' W 092°10'0 0.0
2017-Oct-21 09:00N 29°47' W 092°10'0 0.0
2017-Oct-21 08:30N 29°47' W 092°10'0 0.0
2017-Oct-21 08:00N 29°47' W 092°10'0 0.0
2017-Oct-21 07:30N 29°47' W 092°10'0 0.0
2017-Oct-21 07:00N 29°47' W 092°10'0 0.0
2017-Oct-21 06:30N 29°47' W 092°10'0 0.0
2017-Oct-21 06:00N 29°47' W 092°10'0 0.0
2017-Oct-21 05:30N 29°47' W 092°10'0 0.0
2017-Oct-21 05:00N 29°47' W 092°10'0 0.0
2017-Oct-21 04:30N 29°47' W 092°10'0 0.0
2017-Oct-21 04:00N 29°47' W 092°10'0 0.0
2017-Oct-21 03:30N 29°47' W 092°10'0 0.0
2017-Oct-21 03:00N 29°47' W 092°10'0 0.0
2017-Oct-21 02:30N 29°47' W 092°10'0 0.0
2017-Oct-21 02:00N 29°47' W 092°10'0 0.0
2017-Oct-21 01:30N 29°47' W 092°10'0 0.0
2017-Oct-21 01:00N 29°47' W 092°10'0 0.0
2017-Oct-21 00:30N 29°47' W 092°10'0 0.0
2017-Oct-21 00:00N 29°47' W 092°10'0 0.0
2017-Oct-20 23:30N 29°47' W 092°10'0 0.0
2017-Oct-20 23:00N 29°47' W 092°10'0 0.0
2017-Oct-20 22:30N 29°47' W 092°10'0 0.0
2017-Oct-20 22:00N 29°47' W 092°10'0 0.0
2017-Oct-20 21:30N 29°47' W 092°10'0 0.0
2017-Oct-20 21:00N 29°47' W 092°10'0 0.0
2017-Oct-20 20:30N 29°47' W 092°10'0 0.0
2017-Oct-20 20:00N 29°47' W 092°10'0 0.0
2017-Oct-20 19:30N 29°47' W 092°10'0 0.0
2017-Oct-20 19:00N 29°47' W 092°10'0 0.0
2017-Oct-20 18:30N 29°47' W 092°10'0 0.0
2017-Oct-20 18:00N 29°47' W 092°10'0 0.1
2017-Oct-20 17:30N 29°47' W 092°10'1 2.4
2017-Oct-20 17:00N 29°47' W 092°11'0 0.8
2017-Oct-20 16:30N 29°47' W 092°11'1 1.6
2017-Oct-20 16:00N 29°47' W 092°12'1 2.2
2017-Oct-20 15:30N 29°48' W 092°13'2 4.7
2017-Oct-20 15:00N 29°49' W 092°16'2 3.4
2017-Oct-20 14:19N 29°50' W 092°18'0 0.1
2017-Oct-20 13:01N 29°50' W 092°18'0 0.0
2017-Oct-20 12:55N 29°50' W 092°18'0 0.0
2017-Oct-20 03:46N 29°50' W 092°18'0 0.0
2017-Oct-19 22:40N 29°50' W 092°18'1 2.8
2017-Oct-19 22:27N 29°50' W 092°18'2 3.8
2017-Oct-19 22:00N 29°49' W 092°16'1 2.2
2017-Oct-19 21:30N 29°48' W 092°16'2 3.9
2017-Oct-19 21:00N 29°46' W 092°16'2 4.7
2017-Oct-19 20:30N 29°45' W 092°18'3 0.7
2017-Oct-19 16:40N 29°44' W 092°21'1 5.6
2017-Oct-19 16:30N 29°45' W 092°20'0 1.0
2017-Oct-19 16:00N 29°45' W 092°20'0 0.0
2017-Oct-19 15:26N 29°45' W 092°20'0 0.0
2017-Oct-19 15:00N 29°45' W 092°20'0 0.0
2017-Oct-19 14:27N 29°45' W 092°20'1 0.0
2017-Oct-17 19:57N 29°45' W 092°21'0 0.1
2017-Oct-17 19:30N 29°44' W 092°21'0 0.0
2017-Oct-17 18:59N 29°44' W 092°21'0 0.0
2017-Oct-17 18:22N 29°44' W 092°21'0 0.0
2017-Oct-17 17:58N 29°44' W 092°21'0 0.3
2017-Oct-17 17:30N 29°45' W 092°21'1 1.3
2017-Oct-17 16:34N 29°45' W 092°20'0 0.0
2017-Oct-17 16:27N 29°45' W 092°20'0 0.0
2017-Oct-17 15:57N 29°45' W 092°20'0 0.0
2017-Oct-17 15:13N 29°45' W 092°20'0 0.0
2017-Oct-17 14:57N 29°45' W 092°20'0 0.6
2017-Oct-17 14:30N 29°45' W 092°20'1 2.1
2017-Oct-17 14:00N 29°44' W 092°21'0 0.0
2017-Oct-17 13:30N 29°44' W 092°21'0 0.0
2017-Oct-17 13:00N 29°45' W 092°21'0 0.0
2017-Oct-17 12:30N 29°45' W 092°21'0 0.0
2017-Oct-17 12:00N 29°45' W 092°21'0 0.0
2017-Oct-17 11:30N 29°45' W 092°21'0 0.0
2017-Oct-17 11:00N 29°45' W 092°21'0 0.0
2017-Oct-17 10:29N 29°45' W 092°21'0 0.0
2017-Oct-17 10:00N 29°45' W 092°21'0 0.0
2017-Oct-17 09:31N 29°45' W 092°21'0 0.0
2017-Oct-17 09:00N 29°45' W 092°21'0 0.0
2017-Oct-17 08:31N 29°45' W 092°21'0 0.0
2017-Oct-17 08:00N 29°44' W 092°21'0 0.0
2017-Oct-17 07:30N 29°44' W 092°21'0 0.0
2017-Oct-17 07:00N 29°44' W 092°21'0 0.0
2017-Oct-17 06:30N 29°44' W 092°21'0 0.0
2017-Oct-17 06:00N 29°45' W 092°21'0 0.0
2017-Oct-17 05:30N 29°45' W 092°21'0 0.0
2017-Oct-17 05:00N 29°45' W 092°21'0 0.0
2017-Oct-17 04:30N 29°45' W 092°21'0 0.0
2017-Oct-17 04:00N 29°45' W 092°21'0 0.0
2017-Oct-17 03:30N 29°45' W 092°21'0 0.0
2017-Oct-17 03:00N 29°45' W 092°21'0 0.0
2017-Oct-17 02:30N 29°45' W 092°21'0 0.0
2017-Oct-17 02:00N 29°45' W 092°21'0 0.0
2017-Oct-17 01:30N 29°45' W 092°21'0 0.0
2017-Oct-17 01:00N 29°45' W 092°21'0 0.0
2017-Oct-17 00:30N 29°45' W 092°21'0 0.0
2017-Oct-17 00:00N 29°45' W 092°21'0 0.0
2017-Oct-16 23:30N 29°45' W 092°21'0 0.0
2017-Oct-16 23:00N 29°44' W 092°21'0 0.0
2017-Oct-16 22:29N 29°44' W 092°21'0 0.0
2017-Oct-16 21:59N 29°44' W 092°21'0 0.0
2017-Oct-16 21:30N 29°45' W 092°21'0 0.0
2017-Oct-16 20:58N 29°45' W 092°21'0 0.0
2017-Oct-16 20:30N 29°45' W 092°21'0 0.0
2017-Oct-16 19:51N 29°45' W 092°21'0 0.0
2017-Oct-16 19:30N 29°45' W 092°21'1 1.4
2017-Oct-16 19:00N 29°45' W 092°20'2 4.6
2017-Oct-16 18:30N 29°45' W 092°18'2 4.2
2017-Oct-16 18:01N 29°46' W 092°16'2 4.6
2017-Oct-16 17:30N 29°48' W 092°15'2 4.7
2017-Oct-16 17:00N 29°47' W 092°13'2 3.4
2017-Oct-16 16:30N 29°47' W 092°11'1 3.0
2017-Oct-16 16:00N 29°47' W 092°13'1 1.1
2017-Oct-16 15:30N 29°47' W 092°13'0 0.0
2017-Oct-16 15:00N 29°47' W 092°13'3 2.9
2017-Oct-16 13:58N 29°49' W 092°16'2 1.4
2017-Oct-16 12:35N 29°50' W 092°18'0 0.0
2017-Oct-16 11:42N 29°50' W 092°18'0 0.0
2017-Oct-16 11:22N 29°50' W 092°18'0 0.0
2017-Oct-16 10:57N 29°50' W 092°18'0 0.0
2017-Oct-16 10:29N 29°50' W 092°18'0 0.0
2017-Oct-16 09:57N 29°50' W 092°18'0 0.0
2017-Oct-16 09:13N 29°50' W 092°18'0 0.0
2017-Oct-16 08:57N 29°50' W 092°18'0 0.0
2017-Oct-16 08:21N 29°50' W 092°18'0 0.0
2017-Oct-16 07:52N 29°50' W 092°18'0 0.0
2017-Oct-16 07:30N 29°50' W 092°18'0 0.0
2017-Oct-16 06:58N 29°50' W 092°18'0 0.0
2017-Oct-16 06:24N 29°50' W 092°18'0 0.0
2017-Oct-16 05:55N 29°50' W 092°18'0 0.0
2017-Oct-16 05:28N 29°50' W 092°18'0 0.0
2017-Oct-16 04:53N 29°50' W 092°18'0 0.0
2017-Oct-16 04:29N 29°50' W 092°18'0 0.0
2017-Oct-16 00:07N 29°50' W 092°18'0 0.0
2017-Oct-16 00:00N 29°50' W 092°18'0 0.0
2017-Oct-15 23:20N 29°50' W 092°18'1 0.2
2017-Oct-15 19:53N 29°50' W 092°18'2 5.3
2017-Oct-15 19:30N 29°48' W 092°16'2 3.2
2017-Oct-15 19:00N 29°47' W 092°16'2 3.2
2017-Oct-15 18:30N 29°45' W 092°17'4 0.1
2017-Oct-13 16:10N 29°45' W 092°21'1 4.9
2017-Oct-13 16:00N 29°45' W 092°20'2 4.5
2017-Oct-13 15:30N 29°45' W 092°17'2 3.7
2017-Oct-13 15:00N 29°46' W 092°16'2 3.8
2017-Oct-13 14:30N 29°48' W 092°15'3 2.2
2017-Oct-13 13:14N 29°50' W 092°18'0 0.0
2017-Oct-13 12:58N 29°50' W 092°18'0 0.0
2017-Oct-13 12:12N 29°50' W 092°18'0 0.0
2017-Oct-13 11:59N 29°50' W 092°18'0 0.0
2017-Oct-13 11:28N 29°50' W 092°18'0 0.0
2017-Oct-13 11:00N 29°50' W 092°18'0 0.0
2017-Oct-13 10:30N 29°50' W 092°18'0 0.0
2017-Oct-13 10:00N 29°50' W 092°18'0 0.0
2017-Oct-13 09:30N 29°50' W 092°18'0 0.0
2017-Oct-13 09:00N 29°50' W 092°18'0 0.0
2017-Oct-13 08:30N 29°50' W 092°18'0 0.0
2017-Oct-13 08:00N 29°50' W 092°18'0 0.0
2017-Oct-13 07:29N 29°50' W 092°18'0 0.0
2017-Oct-13 07:00N 29°50' W 092°18'0 0.0
2017-Oct-13 06:30N 29°50' W 092°18'0 0.0
2017-Oct-13 06:00N 29°50' W 092°18'0 0.0
2017-Oct-13 05:30N 29°50' W 092°18'0 0.0
2017-Oct-13 05:00N 29°50' W 092°18'0 0.0
2017-Oct-13 04:30N 29°50' W 092°18'0 0.0
2017-Oct-13 04:00N 29°50' W 092°18'0 0.0
2017-Oct-13 03:29N 29°50' W 092°18'0 0.0
2017-Oct-13 03:00N 29°50' W 092°18'0 0.0
2017-Oct-13 02:28N 29°50' W 092°18'0 0.0
2017-Oct-13 02:00N 29°50' W 092°18'0 0.0
2017-Oct-13 01:30N 29°50' W 092°18'0 0.0
2017-Oct-13 01:00N 29°50' W 092°18'0 0.0
2017-Oct-13 00:30N 29°50' W 092°18'0 0.0
2017-Oct-13 00:00N 29°50' W 092°18'0 0.0
2017-Oct-12 23:30N 29°50' W 092°18'0 0.0
2017-Oct-12 23:00N 29°50' W 092°18'0 0.0
2017-Oct-12 22:30N 29°50' W 092°18'0 0.0
2017-Oct-12 22:00N 29°50' W 092°18'0 0.0
2017-Oct-12 21:30N 29°50' W 092°18'0 0.0
2017-Oct-12 21:00N 29°50' W 092°18'0 0.0
2017-Oct-12 20:28N 29°50' W 092°18'0 0.0
2017-Oct-12 20:00N 29°50' W 092°18'0 0.0
2017-Oct-12 19:30N 29°50' W 092°18'0 0.0
2017-Oct-12 18:58N 29°50' W 092°18'0 0.0
2017-Oct-12 18:28N 29°50' W 092°18'0 0.0
2017-Oct-12 17:49N 29°50' W 092°18'0 0.0
2017-Oct-12 17:30N 29°50' W 092°18'0 0.0
2017-Oct-12 16:58N 29°50' W 092°18'0 0.4
2017-Oct-12 16:30N 29°50' W 092°18'0 0.4
2017-Oct-12 16:00N 29°50' W 092°18'0 0.0
2017-Oct-12 15:30N 29°50' W 092°18'0 0.0
2017-Oct-12 15:00N 29°50' W 092°18'0 0.0
2017-Oct-12 14:30N 29°50' W 092°18'0 0.0
2017-Oct-12 13:59N 29°50' W 092°18'0 0.0
2017-Oct-12 13:30N 29°50' W 092°18'0 0.0
2017-Oct-12 13:00N 29°50' W 092°18'0 0.0
2017-Oct-12 12:30N 29°50' W 092°18'0 0.0
2017-Oct-12 12:00N 29°50' W 092°18'0 0.0
2017-Oct-12 11:30N 29°50' W 092°18'0 0.0
2017-Oct-12 11:00N 29°50' W 092°18'0 0.0
2017-Oct-12 10:30N 29°50' W 092°18'0 0.0
2017-Oct-12 10:00N 29°50' W 092°18'0 0.0
2017-Oct-12 09:31N 29°50' W 092°18'0 0.0
2017-Oct-12 09:00N 29°50' W 092°18'0 0.0
2017-Oct-12 08:30N 29°50' W 092°18'0 0.0
2017-Oct-12 08:00N 29°50' W 092°18'0 0.0
2017-Oct-12 07:30N 29°50' W 092°18'0 0.0
2017-Oct-12 07:00N 29°50' W 092°18'0 0.0
2017-Oct-12 06:31N 29°50' W 092°18'0 0.0
2017-Oct-12 06:00N 29°50' W 092°18'0 0.0
2017-Oct-12 05:30N 29°50' W 092°18'0 0.0
2017-Oct-12 05:01N 29°50' W 092°18'0 0.0
2017-Oct-12 04:30N 29°50' W 092°18'0 0.0
2017-Oct-12 04:01N 29°50' W 092°18'0 0.0
2017-Oct-12 03:31N 29°50' W 092°18'0 0.0
2017-Oct-12 02:58N 29°50' W 092°18'0 0.0
2017-Oct-12 02:30N 29°50' W 092°18'0 0.0
2017-Oct-12 02:00N 29°50' W 092°18'0 0.0
2017-Oct-12 01:30N 29°50' W 092°18'0 0.0
2017-Oct-12 01:00N 29°50' W 092°18'0 0.0
2017-Oct-12 00:30N 29°50' W 092°18'0 0.0
2017-Oct-11 23:58N 29°50' W 092°18'1 2.9
2017-Oct-11 23:30N 29°49' W 092°17'2 3.7
2017-Oct-11 23:00N 29°48' W 092°15'2 3.7
2017-Oct-11 22:31N 29°46' W 092°16'2 4.4
2017-Oct-11 22:01N 29°45' W 092°18'  
Track history (hours):
 
Tides and Currents Weather Stations Pressure Air Temp Water Temp Dewpoint Dewpoint Depression Visibility Wind Speed Wind Dir Waves Ship Positions

Lillian R. Settoon

Owner: Settoon Towing, L.L.C., Pierre Part, LA. More information available from US FCC via Universal Licensing System and Coast Guard Vessel Documentation Center.

Last reported at 2017-Oct-21 18:15 UTC. Time now 2017-Oct-22 06:12 UTC.
Position N 29°45' W 092°20'.

Length 23 m.

MMSI: 367168470.

Date/timePositionNaut miles runAvg speedWind from/ knotsBaromVisibWave heightAir tempDewpointWater temp
2017-Oct-21 18:15N 29°45' W 092°20'1 5.8
2017-Oct-21 18:00N 29°45' W 092°19'3 5.4
2017-Oct-21 17:30N 29°46' W 092°16'2 4.2
2017-Oct-21 17:00N 29°48' W 092°15'2 3.9
2017-Oct-21 16:30N 29°48' W 092°13'1 1.9
2017-Oct-21 16:00N 29°47' W 092°12'1 1.4
2017-Oct-21 15:30N 29°47' W 092°12'0 0.0
2017-Oct-21 15:00N 29°47' W 092°12'0 0.3
2017-Oct-21 14:00N 29°47' W 092°11'1 2.7
2017-Oct-21 13:30N 29°47' W 092°10'0 0.0
2017-Oct-21 13:00N 29°47' W 092°10'0 0.0
2017-Oct-21 12:30N 29°47' W 092°10'0 0.0
2017-Oct-21 12:00N 29°47' W 092°10'0 0.0
2017-Oct-21 11:30N 29°47' W 092°10'0 0.0
2017-Oct-21 11:00N 29°47' W 092°10'0 0.0
2017-Oct-21 10:30N 29°47' W 092°10'0 0.0
2017-Oct-21 10:00N 29°47' W 092°10'0 0.0
2017-Oct-21 09:30N 29°47' W 092°10'0 0.0
2017-Oct-21 09:00N 29°47' W 092°10'0 0.0
2017-Oct-21 08:30N 29°47' W 092°10'0 0.0
2017-Oct-21 08:00N 29°47' W 092°10'0 0.0
2017-Oct-21 07:30N 29°47' W 092°10'0 0.0
2017-Oct-21 07:00N 29°47' W 092°10'0 0.0
2017-Oct-21 06:30N 29°47' W 092°10'0 0.0
2017-Oct-21 06:00N 29°47' W 092°10'0 0.0
2017-Oct-21 05:30N 29°47' W 092°10'0 0.0
2017-Oct-21 05:00N 29°47' W 092°10'0 0.0
2017-Oct-21 04:30N 29°47' W 092°10'0 0.0
2017-Oct-21 04:00N 29°47' W 092°10'0 0.0
2017-Oct-21 03:30N 29°47' W 092°10'0 0.0
2017-Oct-21 03:00N 29°47' W 092°10'0 0.0
2017-Oct-21 02:30N 29°47' W 092°10'0 0.0
2017-Oct-21 02:00N 29°47' W 092°10'0 0.0
2017-Oct-21 01:30N 29°47' W 092°10'0 0.0
2017-Oct-21 01:00N 29°47' W 092°10'0 0.0
2017-Oct-21 00:30N 29°47' W 092°10'0 0.0
2017-Oct-21 00:00N 29°47' W 092°10'0 0.0
2017-Oct-20 23:30N 29°47' W 092°10'0 0.0
2017-Oct-20 23:00N 29°47' W 092°10'0 0.0
2017-Oct-20 22:30N 29°47' W 092°10'0 0.0
2017-Oct-20 22:00N 29°47' W 092°10'0 0.0
2017-Oct-20 21:30N 29°47' W 092°10'0 0.0
2017-Oct-20 21:00N 29°47' W 092°10'0 0.0
2017-Oct-20 20:30N 29°47' W 092°10'0 0.0
2017-Oct-20 20:00N 29°47' W 092°10'0 0.0
2017-Oct-20 19:30N 29°47' W 092°10'0 0.0
2017-Oct-20 19:00N 29°47' W 092°10'0 0.0
2017-Oct-20 18:30N 29°47' W 092°10'0 0.0
2017-Oct-20 18:00N 29°47' W 092°10'0 0.1
2017-Oct-20 17:30N 29°47' W 092°10'1 2.4
2017-Oct-20 17:00N 29°47' W 092°11'0 0.8
2017-Oct-20 16:30N 29°47' W 092°11'1 1.6
2017-Oct-20 16:00N 29°47' W 092°12'1 2.2
2017-Oct-20 15:30N 29°48' W 092°13'2 4.7
2017-Oct-20 15:00N 29°49' W 092°16'2 3.4
2017-Oct-20 14:19N 29°50' W 092°18'0 0.1
2017-Oct-20 13:01N 29°50' W 092°18'0 0.0
2017-Oct-20 12:55N 29°50' W 092°18'0 0.0
2017-Oct-20 03:46N 29°50' W 092°18'0 0.0
2017-Oct-19 22:40N 29°50' W 092°18'1 2.8
2017-Oct-19 22:27N 29°50' W 092°18'2 3.8
2017-Oct-19 22:00N 29°49' W 092°16'1 2.2
2017-Oct-19 21:30N 29°48' W 092°16'2 3.9
2017-Oct-19 21:00N 29°46' W 092°16'2 4.7
2017-Oct-19 20:30N 29°45' W 092°18'3 0.7
2017-Oct-19 16:40N 29°44' W 092°21'1 5.6
2017-Oct-19 16:30N 29°45' W 092°20'0 1.0
2017-Oct-19 16:00N 29°45' W 092°20'0 0.0
2017-Oct-19 15:26N 29°45' W 092°20'0 0.0
2017-Oct-19 15:00N 29°45' W 092°20'0 0.0
2017-Oct-19 14:27N 29°45' W 092°20'1 0.0
2017-Oct-17 19:57N 29°45' W 092°21'0 0.1
2017-Oct-17 19:30N 29°44' W 092°21'0 0.0
2017-Oct-17 18:59N 29°44' W 092°21'0 0.0
2017-Oct-17 18:22N 29°44' W 092°21'0 0.0
2017-Oct-17 17:58N 29°44' W 092°21'0 0.3
2017-Oct-17 17:30N 29°45' W 092°21'1 1.3
2017-Oct-17 16:34N 29°45' W 092°20'0 0.0
2017-Oct-17 16:27N 29°45' W 092°20'0 0.0
2017-Oct-17 15:57N 29°45' W 092°20'0 0.0
2017-Oct-17 15:13N 29°45' W 092°20'0 0.0
2017-Oct-17 14:57N 29°45' W 092°20'0 0.6
2017-Oct-17 14:30N 29°45' W 092°20'1 2.1
2017-Oct-17 14:00N 29°44' W 092°21'0 0.0
2017-Oct-17 13:30N 29°44' W 092°21'0 0.0
2017-Oct-17 13:00N 29°45' W 092°21'0 0.0
2017-Oct-17 12:30N 29°45' W 092°21'0 0.0
2017-Oct-17 12:00N 29°45' W 092°21'0 0.0
2017-Oct-17 11:30N 29°45' W 092°21'0 0.0
2017-Oct-17 11:00N 29°45' W 092°21'0 0.0
2017-Oct-17 10:29N 29°45' W 092°21'0 0.0
2017-Oct-17 10:00N 29°45' W 092°21'0 0.0
2017-Oct-17 09:31N 29°45' W 092°21'0 0.0
2017-Oct-17 09:00N 29°45' W 092°21'0 0.0
2017-Oct-17 08:31N 29°45' W 092°21'0 0.0
2017-Oct-17 08:00N 29°44' W 092°21'0 0.0
2017-Oct-17 07:30N 29°44' W 092°21'0 0.0
2017-Oct-17 07:00N 29°44' W 092°21'0 0.0
2017-Oct-17 06:30N 29°44' W 092°21'0 0.0
2017-Oct-17 06:00N 29°45' W 092°21'0 0.0
2017-Oct-17 05:30N 29°45' W 092°21'0 0.0
2017-Oct-17 05:00N 29°45' W 092°21'0 0.0
2017-Oct-17 04:30N 29°45' W 092°21'0 0.0
2017-Oct-17 04:00N 29°45' W 092°21'0 0.0
2017-Oct-17 03:30N 29°45' W 092°21'0 0.0
2017-Oct-17 03:00N 29°45' W 092°21'0 0.0
2017-Oct-17 02:30N 29°45' W 092°21'0 0.0
2017-Oct-17 02:00N 29°45' W 092°21'0 0.0
2017-Oct-17 01:30N 29°45' W 092°21'0 0.0
2017-Oct-17 01:00N 29°45' W 092°21'0 0.0
2017-Oct-17 00:30N 29°45' W 092°21'0 0.0
2017-Oct-17 00:00N 29°45' W 092°21'0 0.0
2017-Oct-16 23:30N 29°45' W 092°21'0 0.0
2017-Oct-16 23:00N 29°44' W 092°21'0 0.0
2017-Oct-16 22:29N 29°44' W 092°21'0 0.0
2017-Oct-16 21:59N 29°44' W 092°21'0 0.0
2017-Oct-16 21:30N 29°45' W 092°21'0 0.0
2017-Oct-16 20:58N 29°45' W 092°21'0 0.0
2017-Oct-16 20:30N 29°45' W 092°21'0 0.0
2017-Oct-16 19:51N 29°45' W 092°21'0 0.0
2017-Oct-16 19:30N 29°45' W 092°21'1 1.4
2017-Oct-16 19:00N 29°45' W 092°20'2 4.6
2017-Oct-16 18:30N 29°45' W 092°18'2 4.2
2017-Oct-16 18:01N 29°46' W 092°16'2 4.6
2017-Oct-16 17:30N 29°48' W 092°15'2 4.7
2017-Oct-16 17:00N 29°47' W 092°13'2 3.4
2017-Oct-16 16:30N 29°47' W 092°11'1 3.0
2017-Oct-16 16:00N 29°47' W 092°13'1 1.1
2017-Oct-16 15:30N 29°47' W 092°13'0 0.0
2017-Oct-16 15:00N 29°47' W 092°13'3 2.9
2017-Oct-16 13:58N 29°49' W 092°16'2 1.4
2017-Oct-16 12:35N 29°50' W 092°18'0 0.0
2017-Oct-16 11:42N 29°50' W 092°18'0 0.0
2017-Oct-16 11:22N 29°50' W 092°18'0 0.0
2017-Oct-16 10:57N 29°50' W 092°18'0 0.0
2017-Oct-16 10:29N 29°50' W 092°18'0 0.0
2017-Oct-16 09:57N 29°50' W 092°18'0 0.0
2017-Oct-16 09:13N 29°50' W 092°18'0 0.0
2017-Oct-16 08:57N 29°50' W 092°18'0 0.0
2017-Oct-16 08:21N 29°50' W 092°18'0 0.0
2017-Oct-16 07:52N 29°50' W 092°18'0 0.0
2017-Oct-16 07:30N 29°50' W 092°18'0 0.0
2017-Oct-16 06:58N 29°50' W 092°18'0 0.0
2017-Oct-16 06:24N 29°50' W 092°18'0 0.0
2017-Oct-16 05:55N 29°50' W 092°18'0 0.0
2017-Oct-16 05:28N 29°50' W 092°18'0 0.0
2017-Oct-16 04:53N 29°50' W 092°18'0 0.0
2017-Oct-16 04:29N 29°50' W 092°18'0 0.0
2017-Oct-16 00:07N 29°50' W 092°18'0 0.0
2017-Oct-16 00:00N 29°50' W 092°18'0 0.0
2017-Oct-15 23:20N 29°50' W 092°18'1 0.2
2017-Oct-15 19:53N 29°50' W 092°18'2 5.3
2017-Oct-15 19:30N 29°48' W 092°16'2 3.2
2017-Oct-15 19:00N 29°47' W 092°16'2 3.2
2017-Oct-15 18:30N 29°45' W 092°17'4 0.1
2017-Oct-13 16:10N 29°45' W 092°21'1 4.9
2017-Oct-13 16:00N 29°45' W 092°20'2 4.5
2017-Oct-13 15:30N 29°45' W 092°17'2 3.7
2017-Oct-13 15:00N 29°46' W 092°16'2 3.8
2017-Oct-13 14:30N 29°48' W 092°15'3 2.2
2017-Oct-13 13:14N 29°50' W 092°18'0 0.0
2017-Oct-13 12:58N 29°50' W 092°18'0 0.0
2017-Oct-13 12:12N 29°50' W 092°18'0 0.0
2017-Oct-13 11:59N 29°50' W 092°18'0 0.0
2017-Oct-13 11:28N 29°50' W 092°18'0 0.0
2017-Oct-13 11:00N 29°50' W 092°18'0 0.0
2017-Oct-13 10:30N 29°50' W 092°18'0 0.0
2017-Oct-13 10:00N 29°50' W 092°18'0 0.0
2017-Oct-13 09:30N 29°50' W 092°18'0 0.0
2017-Oct-13 09:00N 29°50' W 092°18'0 0.0
2017-Oct-13 08:30N 29°50' W 092°18'0 0.0
2017-Oct-13 08:00N 29°50' W 092°18'0 0.0
2017-Oct-13 07:29N 29°50' W 092°18'0 0.0
2017-Oct-13 07:00N 29°50' W 092°18'0 0.0
2017-Oct-13 06:30N 29°50' W 092°18'0 0.0
2017-Oct-13 06:00N 29°50' W 092°18'0 0.0
2017-Oct-13 05:30N 29°50' W 092°18'0 0.0
2017-Oct-13 05:00N 29°50' W 092°18'0 0.0
2017-Oct-13 04:30N 29°50' W 092°18'0 0.0
2017-Oct-13 04:00N 29°50' W 092°18'0 0.0
2017-Oct-13 03:29N 29°50' W 092°18'0 0.0
2017-Oct-13 03:00N 29°50' W 092°18'0 0.0
2017-Oct-13 02:28N 29°50' W 092°18'0 0.0
2017-Oct-13 02:00N 29°50' W 092°18'0 0.0
2017-Oct-13 01:30N 29°50' W 092°18'0 0.0
2017-Oct-13 01:00N 29°50' W 092°18'0 0.0
2017-Oct-13 00:30N 29°50' W 092°18'0 0.0
2017-Oct-13 00:00N 29°50' W 092°18'0 0.0
2017-Oct-12 23:30N 29°50' W 092°18'0 0.0
2017-Oct-12 23:00N 29°50' W 092°18'0 0.0
2017-Oct-12 22:30N 29°50' W 092°18'0 0.0
2017-Oct-12 22:00N 29°50' W 092°18'0 0.0
2017-Oct-12 21:30N 29°50' W 092°18'0 0.0
2017-Oct-12 21:00N 29°50' W 092°18'0 0.0
2017-Oct-12 20:28N 29°50' W 092°18'0 0.0
2017-Oct-12 20:00N 29°50' W 092°18'0 0.0
2017-Oct-12 19:30N 29°50' W 092°18'0 0.0
2017-Oct-12 18:58N 29°50' W 092°18'0 0.0
2017-Oct-12 18:28N 29°50' W 092°18'0 0.0
2017-Oct-12 17:49N 29°50' W 092°18'0 0.0
2017-Oct-12 17:30N 29°50' W 092°18'0 0.0
2017-Oct-12 16:58N 29°50' W 092°18'0 0.4
2017-Oct-12 16:30N 29°50' W 092°18'0 0.4
2017-Oct-12 16:00N 29°50' W 092°18'0 0.0
2017-Oct-12 15:30N 29°50' W 092°18'0 0.0
2017-Oct-12 15:00N 29°50' W 092°18'0 0.0
2017-Oct-12 14:30N 29°50' W 092°18'0 0.0
2017-Oct-12 13:59N 29°50' W 092°18'0 0.0
2017-Oct-12 13:30N 29°50' W 092°18'0 0.0
2017-Oct-12 13:00N 29°50' W 092°18'0 0.0
2017-Oct-12 12:30N 29°50' W 092°18'0 0.0
2017-Oct-12 12:00N 29°50' W 092°18'0 0.0
2017-Oct-12 11:30N 29°50' W 092°18'0 0.0
2017-Oct-12 11:00N 29°50' W 092°18'0 0.0
2017-Oct-12 10:30N 29°50' W 092°18'0 0.0
2017-Oct-12 10:00N 29°50' W 092°18'0 0.0
2017-Oct-12 09:31N 29°50' W 092°18'0 0.0
2017-Oct-12 09:00N 29°50' W 092°18'0 0.0
2017-Oct-12 08:30N 29°50' W 092°18'0 0.0
2017-Oct-12 08:00N 29°50' W 092°18'0 0.0
2017-Oct-12 07:30N 29°50' W 092°18'0 0.0
2017-Oct-12 07:00N 29°50' W 092°18'0 0.0
2017-Oct-12 06:31N 29°50' W 092°18'0 0.0
2017-Oct-12 06:00N 29°50' W 092°18'0 0.0
2017-Oct-12 05:30N 29°50' W 092°18'0 0.0
2017-Oct-12 05:01N 29°50' W 092°18'0 0.0
2017-Oct-12 04:30N 29°50' W 092°18'0 0.0
2017-Oct-12 04:01N 29°50' W 092°18'0 0.0
2017-Oct-12 03:31N 29°50' W 092°18'0 0.0
2017-Oct-12 02:58N 29°50' W 092°18'0 0.0
2017-Oct-12 02:30N 29°50' W 092°18'0 0.0
2017-Oct-12 02:00N 29°50' W 092°18'0 0.0
2017-Oct-12 01:30N 29°50' W 092°18'0 0.0
2017-Oct-12 01:00N 29°50' W 092°18'0 0.0
2017-Oct-12 00:30N 29°50' W 092°18'0 0.0
2017-Oct-11 23:58N 29°50' W 092°18'1 2.9
2017-Oct-11 23:30N 29°49' W 092°17'2 3.7
2017-Oct-11 23:00N 29°48' W 092°15'2 3.7
2017-Oct-11 22:31N 29°46' W 092°16'2 4.4
2017-Oct-11 22:01N 29°45' W 092°18'  

Dump ship's entire track history